createdAt,value
2019-05-14T00:00:17.530Z,7.24
2019-05-14T00:02:51.893Z,7.17
2019-05-14T00:05:21.627Z,7.22
2019-05-14T00:07:52.202Z,7.23
2019-05-14T00:10:22.337Z,7.25
2019-05-14T00:12:52.342Z,7.29
2019-05-14T00:15:22.541Z,7.37
2019-05-14T00:17:52.543Z,7.44
2019-05-14T00:20:23.316Z,7.46
2019-05-14T00:22:53.335Z,7.42
2019-05-14T00:25:23.345Z,7.32
2019-05-14T00:27:53.967Z,7.29
2019-05-14T00:30:24.054Z,7.25
2019-05-14T00:32:54.038Z,7.21
2019-05-14T00:35:24.138Z,7.15
2019-05-14T00:37:54.105Z,7.11
2019-05-14T00:40:24.114Z,7.08
2019-05-14T00:42:54.160Z,7.05
2019-05-14T00:45:24.168Z,7.04
2019-05-14T00:47:54.227Z,7.08
2019-05-14T00:50:25.782Z,7.12
2019-05-14T00:52:56.313Z,7.03
2019-05-14T00:55:26.402Z,7.02
2019-05-14T00:57:56.376Z,7.01
2019-05-14T01:00:27.196Z,7.03
2019-05-14T01:03:02.049Z,7.04
2019-05-14T01:05:32.466Z,6.95
2019-05-14T01:08:02.532Z,6.93
2019-05-14T01:10:32.596Z,6.92
2019-05-14T01:13:02.584Z,6.83
2019-05-14T01:15:32.604Z,6.81
2019-05-14T01:18:02.593Z,6.78
2019-05-14T01:20:32.663Z,6.77
2019-05-14T01:23:02.657Z,6.74
2019-05-14T01:25:32.661Z,6.76
2019-05-14T01:28:02.714Z,6.76
2019-05-14T01:30:36.870Z,6.72
2019-05-14T01:33:06.924Z,6.68
2019-05-14T01:35:36.922Z,6.58
2019-05-14T01:38:08.700Z,6.44
2019-05-14T01:40:38.705Z,6.39
2019-05-14T01:43:08.709Z,6.31
2019-05-14T01:45:38.719Z,6.34
2019-05-14T01:48:08.729Z,6.36
2019-05-14T01:50:38.711Z,6.36
2019-05-14T01:53:08.708Z,6.34
2019-05-14T01:55:41.456Z,6.32
2019-05-14T01:58:11.684Z,6.28
2019-05-14T02:00:41.778Z,6.30
2019-05-14T02:03:12.223Z,6.22
2019-05-14T02:05:42.320Z,6.14
2019-05-14T02:08:12.330Z,6.08
2019-05-14T02:10:42.403Z,6.01
2019-05-14T02:13:12.442Z,6.01
2019-05-14T02:15:44.222Z,6.00
2019-05-14T02:18:14.236Z,5.97
2019-05-14T02:20:44.232Z,5.95
2019-05-14T02:23:14.235Z,5.89
2019-05-14T02:25:44.214Z,5.83
2019-05-14T02:28:16.453Z,5.77
2019-05-14T02:30:53.624Z,5.69
2019-05-14T02:33:19.254Z,5.56
2019-05-14T02:35:49.660Z,5.56
2019-05-14T02:38:19.741Z,5.53
2019-05-14T02:40:49.822Z,5.45
2019-05-14T02:43:20.300Z,5.32
2019-05-14T02:46:05.953Z,5.27
2019-05-14T02:48:22.170Z,5.29
2019-05-14T02:50:53.302Z,5.26
2019-05-14T02:53:23.393Z,5.23
2019-05-14T02:55:53.368Z,5.23
2019-05-14T02:58:23.368Z,5.23
2019-05-14T03:00:53.381Z,5.25
2019-05-14T03:03:23.639Z,5.20
2019-05-14T03:05:53.687Z,5.11
2019-05-14T03:08:23.768Z,5.06
2019-05-14T03:10:53.986Z,5.00
2019-05-14T03:13:25.633Z,4.97
2019-05-14T03:15:59.396Z,4.93
2019-05-14T03:18:29.617Z,4.87
2019-05-14T03:21:01.041Z,4.81
2019-05-14T03:23:31.349Z,4.82
2019-05-14T03:26:01.405Z,4.81
2019-05-14T03:28:31.404Z,4.76
2019-05-14T03:31:03.614Z,4.72
2019-05-14T03:33:34.323Z,4.71
2019-05-14T03:36:09.460Z,4.60
2019-05-14T03:38:39.472Z,4.47
2019-05-14T03:41:09.351Z,4.41
2019-05-14T03:43:40.216Z,4.37
2019-05-14T03:46:10.368Z,4.31
2019-05-14T03:48:40.412Z,4.35
2019-05-14T03:51:10.668Z,4.36
2019-05-14T03:53:55.893Z,4.39
2019-05-14T03:56:13.383Z,4.45
2019-05-14T03:58:43.536Z,4.49
2019-05-14T04:01:14.583Z,4.56
2019-05-14T04:03:44.907Z,4.65
2019-05-14T04:06:19.003Z,4.68
2019-05-14T04:08:49.743Z,4.71
2019-05-14T04:11:22.415Z,4.73
2019-05-14T04:13:55.691Z,4.73
2019-05-14T04:16:29.256Z,4.80
2019-05-14T04:19:02.366Z,4.83
2019-05-14T04:21:32.826Z,4.85
2019-05-14T04:24:04.638Z,4.92
2019-05-14T04:26:53.140Z,4.91
2019-05-14T04:29:10.991Z,4.97
2019-05-14T04:31:42.561Z,5.03
2019-05-14T04:34:14.497Z,5.09
2019-05-14T04:36:45.462Z,5.19
2019-05-14T04:39:15.555Z,5.24
2019-05-14T04:41:45.894Z,5.32
2019-05-14T04:44:18.943Z,5.42
2019-05-14T04:46:49.391Z,5.43
2019-05-14T04:49:20.171Z,5.49
2019-05-14T04:51:50.601Z,5.54
2019-05-14T04:54:20.687Z,5.64
2019-05-14T04:56:51.136Z,5.67
2019-05-14T04:59:21.316Z,5.72
2019-05-14T05:01:51.305Z,5.77
2019-05-14T05:04:21.317Z,5.81
2019-05-14T05:06:51.342Z,5.93
2019-05-14T05:09:21.336Z,5.96
2019-05-14T05:11:51.422Z,6.00
2019-05-14T05:14:23.786Z,6.02
2019-05-14T05:16:54.185Z,6.11
2019-05-14T05:19:24.218Z,6.12
2019-05-14T05:21:54.217Z,6.24
2019-05-14T05:24:24.207Z,6.36
2019-05-14T05:26:54.226Z,6.39
2019-05-14T05:29:24.241Z,6.48
2019-05-14T05:31:54.257Z,6.52
2019-05-14T05:34:24.235Z,6.71
2019-05-14T05:36:55.322Z,6.92
2019-05-14T05:39:25.313Z,6.91
2019-05-14T05:41:58.347Z,7.02
2019-05-14T05:44:28.727Z,7.16
2019-05-14T05:46:59.817Z,7.21
2019-05-14T05:49:29.900Z,7.34
2019-05-14T05:51:59.910Z,7.41
2019-05-14T05:54:29.923Z,7.42
2019-05-14T05:56:59.918Z,7.59
2019-05-14T05:59:30.005Z,7.74
2019-05-14T06:02:00.063Z,7.78
2019-05-14T06:04:30.087Z,7.82
2019-05-14T06:07:02.882Z,7.96
2019-05-14T06:09:34.119Z,8.10
2019-05-14T06:12:04.190Z,8.35
2019-05-14T06:14:34.200Z,8.46
2019-05-14T06:17:04.229Z,8.64
2019-05-14T06:19:34.221Z,8.67
2019-05-14T06:22:04.437Z,8.81
2019-05-14T06:24:34.369Z,9.09
2019-05-14T06:27:04.939Z,9.20
2019-05-14T06:29:34.925Z,9.29
2019-05-14T06:32:05.087Z,9.40
2019-05-14T06:34:35.101Z,9.62
2019-05-14T06:37:05.361Z,9.75
2019-05-14T06:39:35.376Z,9.92
2019-05-14T06:42:05.359Z,10.05
2019-05-14T06:44:35.377Z,10.17
2019-05-14T06:47:05.436Z,10.36
2019-05-14T06:49:35.457Z,10.33
2019-05-14T06:52:08.467Z,10.41
2019-05-14T06:54:38.722Z,10.43
2019-05-14T06:57:09.548Z,10.59
2019-05-14T06:59:39.546Z,10.72
2019-05-14T07:02:09.567Z,10.76
2019-05-14T07:04:41.181Z,10.90
2019-05-14T07:07:14.219Z,11.08
2019-05-14T07:09:44.249Z,11.22
2019-05-14T07:12:14.240Z,11.29
2019-05-14T07:14:48.214Z,11.39
2019-05-14T07:17:18.552Z,11.39
2019-05-14T07:19:49.167Z,11.39
2019-05-14T07:22:19.693Z,11.40
2019-05-14T07:24:50.094Z,11.50
2019-05-14T07:27:20.150Z,11.75
2019-05-14T07:29:50.175Z,11.85
2019-05-14T07:32:20.167Z,11.89
2019-05-14T07:34:50.180Z,12.03
2019-05-14T07:37:22.533Z,12.08
2019-05-14T07:39:52.552Z,12.03
2019-05-14T07:42:22.541Z,12.06
2019-05-14T07:44:52.561Z,12.16
2019-05-14T07:47:22.560Z,12.34
2019-05-14T07:49:52.577Z,12.33
2019-05-14T07:52:22.571Z,12.46
2019-05-14T07:54:52.672Z,12.46
2019-05-14T07:57:22.679Z,12.64
2019-05-14T07:59:52.873Z,12.60
2019-05-14T08:02:22.869Z,12.75
2019-05-14T08:04:52.893Z,12.88
2019-05-14T08:07:22.980Z,12.88
2019-05-14T08:09:52.975Z,13.04
2019-05-14T08:12:23.068Z,13.15
2019-05-14T08:15:10.884Z,12.98
2019-05-14T08:17:24.844Z,12.91
2019-05-14T08:19:54.873Z,13.02
2019-05-14T08:22:24.901Z,13.04
2019-05-14T08:24:54.888Z,13.15
2019-05-14T08:27:28.030Z,13.09
2019-05-14T08:29:58.774Z,13.24
2019-05-14T08:32:28.537Z,13.21
2019-05-14T08:34:58.585Z,13.32
2019-05-14T08:37:28.655Z,13.38
2019-05-14T08:39:58.966Z,13.05
2019-05-14T08:42:29.254Z,13.34
2019-05-14T08:44:59.488Z,13.56
2019-05-14T08:47:29.595Z,13.62
2019-05-14T08:50:00.074Z,13.68
2019-05-14T08:52:30.274Z,13.79
2019-05-14T08:55:07.251Z,13.74
2019-05-14T08:57:32.097Z,13.85
2019-05-14T09:00:02.250Z,13.50
2019-05-14T09:02:32.324Z,13.59
2019-05-14T09:05:04.332Z,13.91
2019-05-14T09:07:34.377Z,14.13
2019-05-14T09:10:08.697Z,14.17
2019-05-14T09:12:39.075Z,14.47
2019-05-14T09:15:09.942Z,14.60
2019-05-14T09:17:40.123Z,14.73
2019-05-14T09:20:11.655Z,14.75
2019-05-14T09:22:42.056Z,14.44
2019-05-14T09:25:12.414Z,13.80
2019-05-14T09:27:42.402Z,13.61
2019-05-14T09:30:12.765Z,14.08
2019-05-14T09:32:42.776Z,14.30
2019-05-14T09:35:13.135Z,14.63
2019-05-14T09:37:51.294Z,14.57
2019-05-14T09:40:20.060Z,14.49
2019-05-14T09:42:51.664Z,14.57
2019-05-14T09:45:21.750Z,14.92
2019-05-14T09:47:51.927Z,14.91
2019-05-14T09:50:23.611Z,15.05
2019-05-14T09:52:53.754Z,15.33
2019-05-14T09:55:23.770Z,15.07
2019-05-14T09:57:53.855Z,14.92
2019-05-14T10:00:24.227Z,14.91
2019-05-14T10:02:54.373Z,15.05
2019-05-14T10:05:24.445Z,15.40
2019-05-14T10:07:54.535Z,15.55
2019-05-14T10:10:24.689Z,15.58
2019-05-14T10:12:57.327Z,15.53
2019-05-14T10:15:28.692Z,15.65
2019-05-14T10:18:00.283Z,15.20
2019-05-14T10:20:40.149Z,15.50
2019-05-14T10:23:03.991Z,15.76
2019-05-14T10:25:34.059Z,15.94
2019-05-14T10:28:04.156Z,16.29
2019-05-14T10:30:34.217Z,16.09
2019-05-14T10:33:09.115Z,16.18
2019-05-14T10:35:36.045Z,15.80
2019-05-14T10:38:08.781Z,15.45
2019-05-14T10:40:38.512Z,15.42
2019-05-14T10:43:09.272Z,15.43
2019-05-14T10:45:39.591Z,14.93
2019-05-14T10:48:09.873Z,14.75
2019-05-14T10:50:56.095Z,15.17
2019-05-14T10:53:13.329Z,14.79
2019-05-14T10:55:43.332Z,14.71
2019-05-14T10:58:13.368Z,15.19
2019-05-14T11:00:43.466Z,15.65
2019-05-14T11:03:15.266Z,15.61
2019-05-14T11:05:45.273Z,15.71
2019-05-14T11:08:19.121Z,15.58
2019-05-14T11:10:49.883Z,16.00
2019-05-14T11:13:20.018Z,15.93
2019-05-14T11:15:51.122Z,15.77
2019-05-14T11:18:23.100Z,15.50
2019-05-14T11:20:53.190Z,15.17
2019-05-14T11:23:23.230Z,15.27
2019-05-14T11:25:54.701Z,15.11
2019-05-14T11:28:24.665Z,15.00
2019-05-14T11:30:56.644Z,15.24
2019-05-14T11:33:29.518Z,15.56
2019-05-14T11:35:59.169Z,15.70
2019-05-14T11:38:37.213Z,16.04
2019-05-14T11:41:02.307Z,16.19
2019-05-14T11:43:32.368Z,16.28
2019-05-14T11:46:02.509Z,15.80
2019-05-14T11:48:32.506Z,15.54
2019-05-14T11:51:02.947Z,15.93
2019-05-14T11:53:34.479Z,16.35
2019-05-14T11:56:08.808Z,16.45
2019-05-14T11:58:41.567Z,16.71
2019-05-14T12:01:11.701Z,16.53
2019-05-14T12:03:43.506Z,16.56
2019-05-14T12:06:13.526Z,16.67
2019-05-14T12:08:43.863Z,16.60
2019-05-14T12:11:19.164Z,16.61
2019-05-14T12:13:48.860Z,16.88
2019-05-14T12:16:21.189Z,16.88
2019-05-14T12:18:52.902Z,16.55
2019-05-14T12:21:22.985Z,16.14
2019-05-14T12:23:53.021Z,15.77
2019-05-14T12:26:23.160Z,15.18
2019-05-14T12:28:56.044Z,14.95
2019-05-14T12:31:28.936Z,14.92
2019-05-14T12:34:00.591Z,14.93
2019-05-14T12:36:30.609Z,15.61
2019-05-14T12:39:00.875Z,15.60
2019-05-14T12:41:35.041Z,15.61
2019-05-14T12:44:09.045Z,15.55
2019-05-14T12:46:37.755Z,15.37
2019-05-14T12:49:11.546Z,15.91
2019-05-14T12:51:42.520Z,16.22
2019-05-14T12:54:11.860Z,16.33
2019-05-14T12:56:43.843Z,16.56
2019-05-14T12:59:13.945Z,16.66
2019-05-14T13:01:45.146Z,16.69
2019-05-14T13:04:20.061Z,16.56
2019-05-14T13:06:51.414Z,16.53
2019-05-14T13:09:21.818Z,16.63
2019-05-14T13:11:52.176Z,16.78
2019-05-14T13:14:22.273Z,16.88
2019-05-14T13:16:55.043Z,16.63
2019-05-14T13:19:28.457Z,15.77
2019-05-14T13:22:13.358Z,15.51
2019-05-14T13:24:32.378Z,15.19
2019-05-14T13:27:02.402Z,14.98
2019-05-14T13:29:35.671Z,15.34
2019-05-14T13:32:12.055Z,15.76
2019-05-14T13:34:39.587Z,16.27
2019-05-14T13:37:12.410Z,16.18
2019-05-14T13:39:52.916Z,15.65
2019-05-14T13:42:20.144Z,15.30
2019-05-14T13:44:50.147Z,15.73
2019-05-14T13:47:21.748Z,16.32
2019-05-14T13:49:51.833Z,16.26
2019-05-14T13:52:22.053Z,16.66
2019-05-14T13:54:54.927Z,16.82
2019-05-14T13:57:25.031Z,16.21
2019-05-14T13:59:58.997Z,15.89
2019-05-14T14:02:31.359Z,15.95
2019-05-14T14:05:01.225Z,16.42
2019-05-14T14:07:33.383Z,16.51
2019-05-14T14:10:03.747Z,16.56
2019-05-14T14:12:36.180Z,16.63
2019-05-14T14:15:09.431Z,16.95
2019-05-14T14:17:39.992Z,17.20
2019-05-14T14:20:12.206Z,17.17
2019-05-14T14:22:48.896Z,16.45
2019-05-14T14:25:19.279Z,16.00
2019-05-14T14:27:49.528Z,15.72
2019-05-14T14:30:20.711Z,16.19
2019-05-14T14:32:50.737Z,16.50
2019-05-14T14:35:23.331Z,16.89
2019-05-14T14:37:52.591Z,17.23
2019-05-14T14:40:23.339Z,16.76
2019-05-14T14:42:53.722Z,16.18
2019-05-14T14:45:23.786Z,15.68
2019-05-14T14:47:56.735Z,15.18
2019-05-14T14:50:28.914Z,14.84
2019-05-14T14:53:00.612Z,15.28
2019-05-14T14:55:30.898Z,15.78
2019-05-14T14:58:00.928Z,16.16
2019-05-14T15:00:31.019Z,16.65
2019-05-14T15:03:01.097Z,16.89
2019-05-14T15:05:32.890Z,16.93
2019-05-14T15:08:05.117Z,16.83
2019-05-14T15:10:39.486Z,16.42
2019-05-14T15:13:16.753Z,15.91
2019-05-14T15:15:49.488Z,15.57
2019-05-14T15:18:22.671Z,15.65
2019-05-14T15:20:52.749Z,15.71
2019-05-14T15:23:29.798Z,15.82
2019-05-14T15:26:01.697Z,16.16
2019-05-14T15:28:33.369Z,16.45
2019-05-14T15:31:08.527Z,16.63
2019-05-14T15:33:40.685Z,16.14
2019-05-14T15:36:10.843Z,15.93
2019-05-14T15:38:44.384Z,15.90
2019-05-14T15:41:15.068Z,15.64
2019-05-14T15:43:47.381Z,15.63
2019-05-14T15:46:18.441Z,15.82
2019-05-14T15:48:49.034Z,16.10
2019-05-14T15:51:19.818Z,16.39
2019-05-14T15:54:05.416Z,16.62
2019-05-14T15:56:21.828Z,16.60
2019-05-14T15:58:51.844Z,16.84
2019-05-14T16:01:21.848Z,16.69
2019-05-14T16:03:51.934Z,16.53
2019-05-14T16:06:22.026Z,16.12
2019-05-14T16:08:52.078Z,15.53
2019-05-14T16:11:25.600Z,15.22
2019-05-14T16:13:55.605Z,15.39
2019-05-14T16:16:28.989Z,15.56
2019-05-14T16:18:59.430Z,15.61
2019-05-14T16:21:29.516Z,15.45
2019-05-14T16:23:59.586Z,15.08
2019-05-14T16:26:29.668Z,14.79
2019-05-14T16:28:59.751Z,14.68
2019-05-14T16:31:37.169Z,14.69
2019-05-14T16:34:05.752Z,14.88
2019-05-14T16:36:41.188Z,15.08
2019-05-14T16:39:10.142Z,15.20
2019-05-14T16:41:40.996Z,15.20
2019-05-14T16:44:18.846Z,15.30
2019-05-14T16:46:48.609Z,15.43
2019-05-14T16:49:18.681Z,15.50
2019-05-14T16:51:49.614Z,15.48
2019-05-14T16:54:19.867Z,15.59
2019-05-14T16:56:51.407Z,15.49
2019-05-14T16:59:21.429Z,15.40
2019-05-14T17:01:51.791Z,15.47
2019-05-14T17:04:21.865Z,15.31
2019-05-14T17:06:51.927Z,15.12
2019-05-14T17:09:21.948Z,14.94
2019-05-14T17:11:53.456Z,14.63
2019-05-14T17:14:23.836Z,14.39
2019-05-14T17:16:53.847Z,14.26
2019-05-14T17:19:23.934Z,14.37
2019-05-14T17:21:59.259Z,14.36
2019-05-14T17:24:29.350Z,14.34
2019-05-14T17:26:59.703Z,14.48
2019-05-14T17:29:29.797Z,14.58
2019-05-14T17:32:00.287Z,14.63
2019-05-14T17:34:30.439Z,14.62
2019-05-14T17:37:00.460Z,14.50
2019-05-14T17:39:30.465Z,14.18
2019-05-14T17:42:00.549Z,14.03
2019-05-14T17:44:30.647Z,14.03
2019-05-14T17:47:00.718Z,13.88
2019-05-14T17:49:30.817Z,13.89
2019-05-14T17:52:02.438Z,13.83
2019-05-14T17:54:32.614Z,13.72
2019-05-14T17:57:02.674Z,13.64
2019-05-14T17:59:33.629Z,13.46
2019-05-14T18:02:04.019Z,13.42
2019-05-14T18:04:34.096Z,13.27
2019-05-14T18:07:04.264Z,13.18
2019-05-14T18:09:34.766Z,13.11
2019-05-14T18:12:05.045Z,13.13
2019-05-14T18:14:35.108Z,13.20
2019-05-14T18:17:05.211Z,13.09
2019-05-14T18:19:35.202Z,13.06
2019-05-14T18:22:05.443Z,13.00
2019-05-14T18:24:35.472Z,13.04
2019-05-14T18:27:05.628Z,12.99
2019-05-14T18:29:38.773Z,12.76
2019-05-14T18:32:08.993Z,12.70
2019-05-14T18:34:39.411Z,12.66
2019-05-14T18:37:13.914Z,12.47
2019-05-14T18:39:43.943Z,12.32
2019-05-14T18:42:14.904Z,12.26
2019-05-14T18:44:44.922Z,12.17
2019-05-14T18:47:16.886Z,12.08
2019-05-14T18:49:48.632Z,11.97
2019-05-14T18:52:18.676Z,11.91
2019-05-14T18:54:49.879Z,11.64
2019-05-14T18:57:20.113Z,11.64
2019-05-14T18:59:50.133Z,11.58
2019-05-14T19:02:20.331Z,11.36
2019-05-14T19:04:50.465Z,11.36
2019-05-14T19:07:22.035Z,11.26
2019-05-14T19:09:52.039Z,11.20
2019-05-14T19:12:23.135Z,11.24
2019-05-14T19:14:53.217Z,11.30
2019-05-14T19:17:23.220Z,11.18
2019-05-14T19:19:53.234Z,11.08
2019-05-14T19:22:24.264Z,11.00
2019-05-14T19:24:54.839Z,10.93
2019-05-14T19:27:24.855Z,10.87
2019-05-14T19:29:56.411Z,10.76
2019-05-14T19:32:29.475Z,10.65
2019-05-14T19:34:59.478Z,10.68
2019-05-14T19:37:29.525Z,10.58
2019-05-14T19:39:59.635Z,10.44
2019-05-14T19:42:29.716Z,10.28
2019-05-14T19:44:59.924Z,10.15
2019-05-14T19:47:29.912Z,10.00
2019-05-14T19:49:59.935Z,9.98
2019-05-14T19:52:30.079Z,9.92
2019-05-14T19:55:00.148Z,10.01
2019-05-14T19:57:30.153Z,9.93
2019-05-14T20:00:00.189Z,9.87
2019-05-14T20:02:30.389Z,9.84
2019-05-14T20:05:00.572Z,9.79
2019-05-14T20:07:30.708Z,9.85
2019-05-14T20:10:00.780Z,9.81
2019-05-14T20:12:32.445Z,9.83
2019-05-14T20:15:02.500Z,9.69
2019-05-14T20:17:33.065Z,9.59
2019-05-14T20:20:05.113Z,9.51
2019-05-14T20:22:35.178Z,9.46
2019-05-14T20:25:07.428Z,9.46
2019-05-14T20:27:38.968Z,9.39
2019-05-14T20:30:10.237Z,9.37
2019-05-14T20:32:44.255Z,9.38
2019-05-14T20:35:30.056Z,9.43
2019-05-14T20:37:45.724Z,9.49
2019-05-14T20:40:16.280Z,9.51
2019-05-14T20:42:49.111Z,9.59
2019-05-14T20:45:19.124Z,9.52
2019-05-14T20:47:50.430Z,9.40
2019-05-14T20:50:20.780Z,9.32
2019-05-14T20:52:53.512Z,9.23
2019-05-14T20:55:23.576Z,9.16
2019-05-14T20:57:53.621Z,9.10
2019-05-14T21:00:23.882Z,9.02
2019-05-14T21:02:53.914Z,8.97
2019-05-14T21:05:23.925Z,8.86
2019-05-14T21:07:53.963Z,8.75
2019-05-14T21:10:24.006Z,8.67
2019-05-14T21:12:57.893Z,8.67
2019-05-14T21:15:28.671Z,8.54
2019-05-14T21:17:59.529Z,8.32
2019-05-14T21:20:30.014Z,8.15
2019-05-14T21:23:00.082Z,7.97
2019-05-14T21:25:30.486Z,7.81
2019-05-14T21:28:00.487Z,7.80
2019-05-14T21:30:30.599Z,7.78
2019-05-14T21:33:00.699Z,7.70
2019-05-14T21:35:31.242Z,7.68
2019-05-14T21:38:02.778Z,7.58
2019-05-14T21:40:32.852Z,7.54
2019-05-14T21:43:02.894Z,7.56
2019-05-14T21:45:32.928Z,7.56
2019-05-14T21:48:03.012Z,7.53
2019-05-14T21:50:33.020Z,7.51
2019-05-14T21:53:03.051Z,7.46
2019-05-14T21:55:38.588Z,7.45
2019-05-14T21:58:11.701Z,7.42
2019-05-14T22:00:45.234Z,7.43
2019-05-14T22:03:15.646Z,7.40
2019-05-14T22:05:48.233Z,7.40
2019-05-14T22:08:17.685Z,7.42
2019-05-14T22:10:48.868Z,7.45
2019-05-14T22:13:19.099Z,7.46
2019-05-14T22:15:52.118Z,7.43
2019-05-14T22:18:22.160Z,7.42
2019-05-14T22:20:52.232Z,7.41
2019-05-14T22:23:22.276Z,7.43
2019-05-14T22:25:52.276Z,7.44
2019-05-14T22:28:22.376Z,7.40
2019-05-14T22:30:53.432Z,7.34
2019-05-14T22:33:24.436Z,7.30
2019-05-14T22:35:54.467Z,7.26
2019-05-14T22:38:29.404Z,7.21
2019-05-14T22:40:59.246Z,7.19
2019-05-14T22:43:29.104Z,7.15
2019-05-14T22:45:59.262Z,7.06
2019-05-14T22:48:29.299Z,6.95
2019-05-14T22:50:59.376Z,6.87
2019-05-14T22:53:30.392Z,6.78
2019-05-14T22:56:02.185Z,6.70
2019-05-14T22:58:32.263Z,6.67
2019-05-14T23:01:14.289Z,6.62
2019-05-14T23:03:34.118Z,6.56
2019-05-14T23:06:04.207Z,6.48
2019-05-14T23:08:34.317Z,6.41
2019-05-14T23:11:04.323Z,6.35
2019-05-14T23:13:34.363Z,6.31
2019-05-14T23:16:04.452Z,6.27
2019-05-14T23:18:37.955Z,6.26
2019-05-14T23:21:08.849Z,6.23
2019-05-14T23:23:39.469Z,6.17
2019-05-14T23:26:09.542Z,6.15
2019-05-14T23:28:45.426Z,6.11
2019-05-14T23:31:11.301Z,6.07
2019-05-14T23:33:41.330Z,5.98
2019-05-14T23:36:12.552Z,5.91
2019-05-14T23:38:42.621Z,5.83
2019-05-14T23:41:12.839Z,5.75
2019-05-14T23:43:42.853Z,5.71
2019-05-14T23:46:12.913Z,5.63
2019-05-14T23:48:42.927Z,5.62
2019-05-14T23:51:13.032Z,5.53
2019-05-14T23:53:44.010Z,5.48
2019-05-14T23:56:14.050Z,5.48
2019-05-14T23:58:54.739Z,5.31
